Time;durP1;ratioP1;P1;durP2;ratioP2;P2;SDS_P1;SDS_P2;PMS_P1;PMS_P2;Temp;Humidity;BMP_temperature;BMP_pressure;BME280_temperature;BME280_humidity;BME280_pressure;Samples;Min_cycle;Max_cycle;Signal;HPM_P1;HPM_P2
2023/04/07 06:32:58;;;;;;;;;;;;;;;6.89;51.35;98027.97;5794398;23;19937;-63
2023/04/07 06:35:25;;;;;;;;;;;;;;;6.90;51.74;98027.88;4942542;29;20017;-66
2023/04/07 06:37:50;;;;;;;;;;;;;;;6.92;50.81;98034.75;4948390;29;19922;-66
2023/04/07 06:40:16;;;;;;;;;;;;;;;7.03;50.83;98035.00;4943665;29;19919;-65
2023/04/07 06:42:41;;;;;;;;;;;;;;;7.11;50.56;98032.78;4942896;29;19918;-63
2023/04/07 06:45:06;;;;;;;;;;;;;;;7.21;51.58;98033.13;4934889;29;19914;-65
2023/04/07 06:47:32;;;;;;;;;;;;;;;7.29;50.91;98031.72;4934434;29;19926;-65
2023/04/07 06:49:57;;;;;;;;;;;;;;;7.40;50.59;98032.88;4945519;29;19925;-65
2023/04/07 06:52:22;;;;;;;;;;;;;;;7.49;50.57;98024.50;4942628;29;19915;-64
2023/04/07 06:54:47;;;;;;;;;;;;;;;7.58;49.86;98029.19;4941172;29;19914;-64
2023/04/07 06:57:13;;;;;;;;;;;;;;;7.66;50.23;98026.97;4953695;28;19922;-64
2023/04/07 06:59:38;;;;;;;;;;;;;;;7.73;50.03;98030.06;4967730;28;20630;-65
2023/04/07 07:02:04;;;;;;;;;;;;;;;7.74;49.42;98027.38;4941701;29;19918;-63
2023/04/07 07:04:29;;;;;;;;;;;;;;;7.66;48.96;98024.34;4944675;28;19925;-64
2023/04/07 07:06:54;;;;;;;;;;;;;;;7.63;49.33;98024.53;4945402;29;19926;-64
2023/04/07 07:09:20;;;;;;;;;;;;;;;7.68;48.87;98019.91;4953762;28;19919;-64
2023/04/07 07:11:46;;;;;;;;;;;;;;;7.74;48.91;98024.75;4952881;28;19919;-64
2023/04/07 07:14:11;;;;;;;;;;;;;;;7.75;48.70;98022.97;4952085;28;20012;-64
2023/04/07 07:16:36;;;;;;;;;;;;;;;7.83;48.48;98021.56;4951762;28;19950;-64
2023/04/07 07:19:02;;;;;;;;;;;;;;;7.96;49.55;98028.69;4953493;28;19919;-64
2023/04/07 07:21:27;;;;;;;;;;;;;;;8.08;49.02;98014.84;4952080;28;19922;-64
2023/04/07 07:23:52;;;;;;;;;;;;;;;8.22;49.08;98019.22;4948033;29;19965;-64
2023/04/07 07:26:17;;;;;;;;;;;;;;;8.32;49.69;98018.56;4953926;29;19919;-64
2023/04/07 07:28:43;;;;;;;;;;;;;;;8.48;51.18;98015.03;4948969;28;20385;-63
2023/04/07 07:31:14;;;;;;;;;;;;;;;8.64;51.40;98018.34;4942429;29;19958;-63
2023/04/07 07:33:40;;;;;;;;;;;;;;;8.76;49.75;98014.94;4936757;29;19926;-64
2023/04/07 07:36:05;;;;;;;;;;;;;;;8.89;49.83;98008.94;4940573;29;19918;-63
2023/04/07 07:38:31;;;;;;;;;;;;;;;9.07;49.33;98007.72;4942317;29;19921;-64
2023/04/07 07:40:56;;;;;;;;;;;;;;;9.25;48.80;98018.75;4944135;29;19918;-65
2023/04/07 07:43:21;;;;;;;;;;;;;;;9.46;48.47;98013.88;4940277;28;19915;-64
2023/04/07 07:45:46;;;;;;;;;;;;;;;9.64;48.10;98011.81;4944009;28;20005;-64
2023/04/07 07:48:12;;;;;;;;;;;;;;;9.79;47.78;98013.38;4936620;29;20010;-64
2023/04/07 07:50:37;;;;;;;;;;;;;;;9.95;48.78;98013.19;4944345;29;20017;-64
2023/04/07 07:53:02;;;;;;;;;;;;;;;10.12;48.00;98015.47;4934541;28;20006;-64
2023/04/07 07:55:27;;;;;;;;;;;;;;;10.31;47.64;98011.56;4936869;29;19918;-64
2023/04/07 07:57:53;;;;;;;;;;;;;;;10.47;46.44;98009.56;4948685;28;19919;-64
2023/04/07 08:00:18;;;;;;;;;;;;;;;10.60;44.95;98009.53;4955130;29;20095;-63
2023/04/07 08:02:43;;;;;;;;;;;;;;;10.68;43.52;98015.03;4956098;29;20013;-63
2023/04/07 08:05:08;;;;;;;;;;;;;;;10.78;43.52;98012.59;4954288;29;19918;-63
2023/04/07 08:07:34;;;;;;;;;;;;;;;10.88;42.92;98018.84;4954559;28;19929;-65
2023/04/07 08:09:59;;;;;;;;;;;;;;;11.00;43.34;98014.47;4956123;28;19914;-64
2023/04/07 08:12:25;;;;;;;;;;;;;;;11.12;43.06;98014.44;4955955;28;19926;-64
2023/04/07 08:14:50;;;;;;;;;;;;;;;11.25;42.19;97997.75;4949146;28;19922;-65
2023/04/07 08:17:15;;;;;;;;;;;;;;;11.39;42.77;98000.22;4955341;29;20288;-64
2023/04/07 08:19:40;;;;;;;;;;;;;;;11.49;41.71;98000.31;4952881;29;20344;-65
2023/04/07 08:22:06;;;;;;;;;;;;;;;11.58;41.98;98008.34;4948756;28;19914;-64
2023/04/07 08:24:31;;;;;;;;;;;;;;;11.68;41.78;98012.91;4954331;28;19946;-63
2023/04/07 08:26:56;;;;;;;;;;;;;;;11.78;42.00;98011.25;4954805;28;19945;-64
2023/04/07 08:29:21;;;;;;;;;;;;;;;11.89;42.25;98011.31;4951219;28;20486;-64
2023/04/07 08:31:46;;;;;;;;;;;;;;;11.96;41.35;98004.63;4953122;29;20445;-64
2023/04/07 08:34:12;;;;;;;;;;;;;;;12.08;42.33;98006.31;4952315;29;20388;-64
2023/04/07 08:36:38;;;;;;;;;;;;;;;12.17;40.96;98003.91;4953193;29;20387;-66
2023/04/07 08:39:04;;;;;;;;;;;;;;;12.29;41.60;98008.22;4953961;29;19918;-65
2023/04/07 08:41:32;;;;;;;;;;;;;;;12.42;42.17;97997.53;4955727;29;19929;-67
2023/04/07 08:43:57;;;;;;;;;;;;;;;12.53;41.73;97998.38;4955266;28;19922;-66
2023/04/07 08:46:22;;;;;;;;;;;;;;;12.62;41.34;97998.59;4951152;29;19941;-66
2023/04/07 08:48:48;;;;;;;;;;;;;;;12.71;40.64;97998.69;4951815;29;19922;-66
2023/04/07 08:51:13;;;;;;;;;;;;;;;12.82;40.61;98000.44;4954212;29;20366;-66
2023/04/07 08:53:42;;;;;;;;;;;;;;;12.88;39.67;98007.03;4951936;29;19926;-66
2023/04/07 08:56:08;;;;;;;;;;;;;;;12.95;40.07;98006.41;4953450;29;19926;-65
2023/04/07 08:58:34;;;;;;;;;;;;;;;13.05;40.23;98007.31;4951467;29;19918;-66
2023/04/07 09:00:59;;;;;;;;;;;;;;;13.16;39.48;98003.81;4953735;29;19922;-66
2023/04/07 09:03:25;;;;;;;;;;;;;;;13.24;39.14;98009.28;4951718;29;19926;-65
2023/04/07 09:05:50;;;;;;;;;;;;;;;13.34;38.57;98003.28;4953826;28;19925;-66
2023/04/07 09:08:15;;;;;;;;;;;;;;;13.42;38.44;98001.69;4955008;28;19922;-66
2023/04/07 09:10:40;;;;;;;;;;;;;;;13.51;38.08;98011.44;4945834;29;20384;-66
2023/04/07 09:13:06;;;;;;;;;;;;;;;13.65;38.33;98004.19;4953857;29;20376;-65
2023/04/07 09:15:31;;;;;;;;;;;;;;;13.72;37.65;98005.34;4948592;29;20398;-66
2023/04/07 09:17:56;;;;;;;;;;;;;;;13.68;36.95;98004.75;4944823;28;20371;-66
2023/04/07 09:20:22;;;;;;;;;;;;;;;13.68;37.37;98003.94;4951573;29;19919;-66
2023/04/07 09:22:49;;;;;;;;;;;;;;;13.77;37.52;98001.34;4954147;28;19966;-66
2023/04/07 09:25:16;;;;;;;;;;;;;;;13.94;37.69;98005.19;4947212;29;20312;-66
2023/04/07 09:27:52;;;;;;;;;;;;;;;14.00;37.62;98001.19;4946468;29;20473;-65
2023/04/07 09:30:17;;;;;;;;;;;;;;;13.82;36.34;98000.13;4950501;28;19965;-66
2023/04/07 09:32:43;;;;;;;;;;;;;;;13.71;36.67;97999.22;4951146;28;19965;-65
2023/04/07 09:35:08;;;;;;;;;;;;;;;13.73;36.92;97988.56;4954144;28;20631;-66
2023/04/07 09:37:33;;;;;;;;;;;;;;;13.93;36.60;98010.56;4946701;28;19953;-66
2023/04/07 09:40:00;;;;;;;;;;;;;;;14.02;36.51;98005.34;4954197;29;19922;-66
2023/04/07 09:42:25;;;;;;;;;;;;;;;14.23;36.77;97999.19;4953759;28;19973;-66
2023/04/07 09:44:51;;;;;;;;;;;;;;;14.40;35.92;97985.38;4952138;29;19918;-66
2023/04/07 09:47:16;;;;;;;;;;;;;;;14.59;35.01;97989.06;4933646;29;19969;-65
2023/04/07 09:49:49;;;;;;;;;;;;;;;14.72;34.19;97989.63;4949302;29;19925;-65
2023/04/07 09:52:16;;;;;;;;;;;;;;;14.94;34.91;97984.13;4947063;29;19926;-66
2023/04/07 09:54:41;;;;;;;;;;;;;;;15.16;34.66;97992.75;4949659;28;19949;-66
2023/04/07 09:57:07;;;;;;;;;;;;;;;15.28;33.69;97985.50;4945534;29;19970;-66
2023/04/07 09:59:32;;;;;;;;;;;;;;;15.32;33.22;97987.75;4950274;28;19942;-66
2023/04/07 10:01:58;;;;;;;;;;;;;;;15.46;33.43;97983.84;4951777;29;20365;-66
2023/04/07 10:04:23;;;;;;;;;;;;;;;15.47;32.80;97989.94;4953567;29;19914;-66
2023/04/07 10:06:49;;;;;;;;;;;;;;;15.57;32.73;97980.19;4942880;28;19930;-65
2023/04/07 10:09:15;;;;;;;;;;;;;;;15.75;34.29;97983.78;4953116;28;20332;-66
2023/04/07 10:11:41;;;;;;;;;;;;;;;15.96;34.63;97980.94;4953642;29;20265;-67
2023/04/07 10:14:06;;;;;;;;;;;;;;;16.22;33.56;97981.13;4952868;29;19925;-66
2023/04/07 10:16:31;;;;;;;;;;;;;;;16.56;32.04;97975.25;4954107;29;19943;-66
2023/04/07 10:18:57;;;;;;;;;;;;;;;16.76;31.22;97979.47;4954698;29;19958;-67
2023/04/07 10:21:22;;;;;;;;;;;;;;;16.88;30.39;97981.91;4948137;28;19969;-66
2023/04/07 10:23:48;;;;;;;;;;;;;;;16.72;30.45;97983.34;4952637;28;20396;-66
2023/04/07 10:26:14;;;;;;;;;;;;;;;16.58;30.51;97978.56;4951464;28;20432;-66
2023/04/07 10:28:40;;;;;;;;;;;;;;;16.47;30.60;97984.06;4956879;28;19923;-66
2023/04/07 10:31:05;;;;;;;;;;;;;;;16.38;30.62;97978.69;4954011;29;19923;-66
2023/04/07 10:33:43;;;;;;;;;;;;;;;16.69;30.91;97973.09;4952840;29;19925;-66
2023/04/07 10:36:08;;;;;;;;;;;;;;;17.15;32.12;97965.94;4946354;28;19973;-67
2023/04/07 10:38:34;;;;;;;;;;;;;;;17.59;31.10;97968.59;4947494;28;19918;-68
2023/04/07 10:40:59;;;;;;;;;;;;;;;17.91;29.62;97972.50;4949958;28;20408;-68
2023/04/07 10:43:38;;;;;;;;;;;;;;;18.12;29.28;97969.44;4952609;28;19919;-67
2023/04/07 10:46:03;;;;;;;;;;;;;;;18.62;31.11;97964.16;4947914;29;19969;-66
2023/04/07 10:48:31;;;;;;;;;;;;;;;19.26;33.22;97972.41;4951200;28;20003;-67
2023/04/07 10:51:06;;;;;;;;;;;;;;;19.77;32.82;97972.25;4951572;29;20393;-67
2023/04/07 10:53:32;;;;;;;;;;;;;;;20.13;27.46;97973.53;4953430;29;19919;-67
2023/04/07 10:55:58;;;;;;;;;;;;;;;20.19;26.38;97966.66;4931347;29;20022;-68
2023/04/07 10:58:23;;;;;;;;;;;;;;;20.32;26.85;97966.13;4952465;28;20471;-67
2023/04/07 11:00:57;;;;;;;;;;;;;;;20.23;25.96;97967.13;4956843;28;19930;-68
2023/04/07 11:03:23;;;;;;;;;;;;;;;20.03;26.35;97972.88;4962950;28;19925;-68
2023/04/07 11:05:48;;;;;;;;;;;;;;;19.59;25.83;97973.25;4952061;28;19919;-68
2023/04/07 11:08:13;;;;;;;;;;;;;;;19.41;26.54;97964.63;4946779;28;19934;-67
2023/04/07 11:10:38;;;;;;;;;;;;;;;19.43;26.90;97967.94;4953359;28;20392;-68
2023/04/07 11:13:03;;;;;;;;;;;;;;;19.20;26.79;97960.66;4953146;29;20383;-68
2023/04/07 11:15:29;;;;;;;;;;;;;;;19.04;27.21;97962.47;4952273;29;20396;-68
2023/04/07 11:18:06;;;;;;;;;;;;;;;18.83;27.83;97960.25;4952760;29;19918;-67
2023/04/07 11:20:44;;;;;;;;;;;;;;;18.59;27.92;97961.00;4944882;29;20458;-67
2023/04/07 11:23:09;;;;;;;;;;;;;;;18.20;28.74;97962.38;4952546;28;19959;-68
2023/04/07 11:25:35;;;;;;;;;;;;;;;18.24;27.86;97954.91;4951734;29;19918;-65
2023/04/07 11:28:02;;;;;;;;;;;;;;;18.34;28.50;97954.75;4951333;28;19969;-64
2023/04/07 11:30:27;;;;;;;;;;;;;;;18.32;28.19;97948.78;4933401;29;20320;-64
2023/04/07 11:32:52;;;;;;;;;;;;;;;18.32;28.71;97951.44;4950198;28;19925;-64
2023/04/07 11:35:17;;;;;;;;;;;;;;;18.53;29.26;97948.38;4956703;28;20368;-66
2023/04/07 11:37:43;;;;;;;;;;;;;;;18.35;28.28;97951.97;4948055;29;20403;-64
2023/04/07 11:40:08;;;;;;;;;;;;;;;18.70;39.26;97958.88;4937240;29;19918;-61
2023/04/07 11:42:34;;;;;;;;;;;;;;;19.20;36.13;97957.97;4942880;29;20009;-60
2023/04/07 11:44:59;;;;;;;;;;;;;;;19.80;33.94;97954.13;4955313;29;20014;-60
2023/04/07 11:47:34;;;;;;;;;;;;;;;20.21;32.23;97945.19;4948530;28;19918;-62
2023/04/07 11:50:00;;;;;;;;;;;;;;;20.44;27.55;97946.09;4944309;29;19923;-62
2023/04/07 11:52:25;;;;;;;;;;;;;;;20.43;27.28;97938.25;4943891;28;19922;-62
2023/04/07 11:54:50;;;;;;;;;;;;;;;20.74;26.52;97940.97;4937882;29;19978;-62
2023/04/07 11:57:23;;;;;;;;;;;;;;;21.31;25.67;97937.88;4946493;29;19919;-62
2023/04/07 11:59:48;;;;;;;;;;;;;;;21.41;24.98;97941.16;4956503;28;19991;-62
2023/04/07 12:02:29;;;;;;;;;;;;;;;21.51;24.28;97938.25;4951514;28;19930;-62
2023/04/07 12:04:56;;;;;;;;;;;;;;;21.56;24.51;97941.19;4956982;28;19914;-62
2023/04/07 12:07:21;;;;;;;;;;;;;;;21.89;25.38;97936.38;4947093;28;19965;-62
2023/04/07 12:09:46;;;;;;;;;;;;;;;22.11;23.32;97928.44;4949622;28;19961;-62
2023/04/07 12:12:11;;;;;;;;;;;;;;;22.26;23.68;97922.13;4956725;28;20603;-62
2023/04/07 12:14:37;;;;;;;;;;;;;;;22.90;25.77;97931.25;4956801;28;19914;-62
2023/04/07 12:17:02;;;;;;;;;;;;;;;23.53;24.97;97934.09;4947584;28;19941;-63
2023/04/07 12:19:28;;;;;;;;;;;;;;;23.83;22.47;97924.88;4948055;28;19969;-63
2023/04/07 12:21:53;;;;;;;;;;;;;;;24.00;21.96;97929.94;4938782;29;19915;-62
2023/04/07 12:24:18;;;;;;;;;;;;;;;24.37;22.49;97929.50;4939651;29;20393;-62
2023/04/07 12:26:44;;;;;;;;;;;;;;;24.55;21.56;97920.94;4946236;28;20266;-62
2023/04/07 12:29:09;;;;;;;;;;;;;;;24.84;22.53;97922.47;4946427;29;19930;-62
2023/04/07 12:31:35;;;;;;;;;;;;;;;25.45;23.53;97928.75;4953133;29;19962;-62
2023/04/07 12:34:00;;;;;;;;;;;;;;;25.39;20.35;97934.94;4955336;28;19923;-63
2023/04/07 12:36:28;;;;;;;;;;;;;;;24.76;20.12;97930.69;4954921;28;19950;-63
2023/04/07 12:38:54;;;;;;;;;;;;;;;23.89;20.61;97932.13;4956076;28;19925;-62
2023/04/07 12:41:19;;;;;;;;;;;;;;;22.75;22.39;97932.13;4946983;28;19926;-62
2023/04/07 12:43:45;;;;;;;;;;;;;;;22.37;23.61;97936.00;4947215;28;19918;-62
2023/04/07 12:46:10;;;;;;;;;;;;;;;21.88;23.61;97932.00;4953249;29;19918;-62
2023/04/07 12:48:35;;;;;;;;;;;;;;;22.86;23.02;97927.31;4950405;28;19927;-62
2023/04/07 12:51:00;;;;;;;;;;;;;;;23.22;22.88;97928.06;4948019;29;19930;-62
2023/04/07 12:53:26;;;;;;;;;;;;;;;22.26;23.87;97924.78;4955334;29;19937;-63
2023/04/07 12:55:51;;;;;;;;;;;;;;;22.03;24.47;97930.19;4954997;28;20017;-62
2023/04/07 12:58:17;;;;;;;;;;;;;;;21.47;24.79;97927.13;4951593;28;19953;-62
2023/04/07 13:00:42;;;;;;;;;;;;;;;20.88;25.95;97928.72;4951966;29;19962;-62
2023/04/07 13:03:08;;;;;;;;;;;;;;;21.35;25.99;97931.22;4944891;28;20385;-62
2023/04/07 13:05:34;;;;;;;;;;;;;;;22.10;25.17;97937.47;4941983;28;19918;-62
2023/04/07 13:07:59;;;;;;;;;;;;;;;22.63;24.53;97938.16;4939469;28;19951;-62
2023/04/07 13:10:24;;;;;;;;;;;;;;;22.85;24.19;97937.19;4942583;28;20083;-62
2023/04/07 13:12:50;;;;;;;;;;;;;;;23.10;24.17;97934.97;4936474;29;20005;-62
2023/04/07 13:15:15;;;;;;;;;;;;;;;23.29;23.87;97932.66;4955208;28;19973;-62
2023/04/07 13:17:41;;;;;;;;;;;;;;;23.18;24.19;97934.84;4940408;28;19965;-62
2023/04/07 13:20:06;;;;;;;;;;;;;;;23.21;24.27;97929.09;4944072;29;19933;-62
2023/04/07 13:22:31;;;;;;;;;;;;;;;22.75;24.49;97933.97;4950836;28;19918;-62
2023/04/07 13:24:56;;;;;;;;;;;;;;;22.42;24.94;97931.75;4944348;29;19995;-62
2023/04/07 13:27:22;;;;;;;;;;;;;;;23.08;23.89;97938.84;4946419;29;19918;-62
2023/04/07 13:29:47;;;;;;;;;;;;;;;23.41;24.06;97933.81;4952509;28;19926;-62
2023/04/07 13:32:13;;;;;;;;;;;;;;;23.33;23.94;97929.44;4948734;29;19921;-62
2023/04/07 13:34:39;;;;;;;;;;;;;;;23.18;23.66;97926.00;4950717;29;19919;-62
2023/04/07 13:37:04;;;;;;;;;;;;;;;23.24;24.20;97941.28;4950648;29;19925;-63
2023/04/07 13:39:30;;;;;;;;;;;;;;;23.12;24.32;97927.56;4953855;29;19961;-62
2023/04/07 13:41:55;;;;;;;;;;;;;;;23.32;24.08;97933.09;4951848;28;19914;-62
2023/04/07 13:44:21;;;;;;;;;;;;;;;23.26;24.21;97931.19;4940013;29;19918;-62
2023/04/07 13:46:46;;;;;;;;;;;;;;;22.90;24.00;97934.75;4961133;28;19914;-62
2023/04/07 13:49:11;;;;;;;;;;;;;;;22.38;24.76;97929.63;4953417;29;19926;-62
2023/04/07 13:51:36;;;;;;;;;;;;;;;21.58;25.85;97922.34;4952896;28;19915;-62
2023/04/07 13:54:02;;;;;;;;;;;;;;;20.98;26.92;97924.78;4943682;29;19965;-62
2023/04/07 13:56:27;;;;;;;;;;;;;;;19.93;28.10;97934.97;4939863;28;19942;-62
2023/04/07 13:58:52;;;;;;;;;;;;;;;19.32;28.82;97925.75;4949512;28;20402;-62
2023/04/07 14:01:18;;;;;;;;;;;;;;;18.85;29.80;97929.84;4957493;28;19914;-62
2023/04/07 14:03:43;;;;;;;;;;;;;;;18.94;29.79;97938.69;4946029;28;19994;-62
2023/04/07 14:06:09;;;;;;;;;;;;;;;18.87;30.51;97941.16;4950041;28;19926;-63
2023/04/07 14:08:34;;;;;;;;;;;;;;;18.37;30.61;97935.84;4953241;28;19970;-63
2023/04/07 14:10:59;;;;;;;;;;;;;;;18.29;30.39;97930.53;4954691;29;19929;-63
2023/04/07 14:13:25;;;;;;;;;;;;;;;18.23;30.79;97938.13;4953874;28;19915;-64
2023/04/07 14:15:52;;;;;;;;;;;;;;;18.36;30.37;97939.50;4953621;29;19919;-64
2023/04/07 14:18:17;;;;;;;;;;;;;;;18.76;30.08;97930.88;4954369;28;19918;-63
2023/04/07 14:20:42;;;;;;;;;;;;;;;19.16;30.37;97932.69;4954569;29;20005;-63
2023/04/07 14:23:07;;;;;;;;;;;;;;;19.13;30.00;97938.38;4953723;29;20376;-62
2023/04/07 14:25:32;;;;;;;;;;;;;;;18.97;30.01;97930.38;4953812;28;20339;-62
2023/04/07 14:27:58;;;;;;;;;;;;;;;18.70;30.79;97934.97;4945638;28;20348;-62
2023/04/07 14:30:23;;;;;;;;;;;;;;;18.44;30.84;97931.56;4954354;29;20276;-63
2023/04/07 14:32:48;;;;;;;;;;;;;;;17.94;30.98;97938.50;4953701;28;19918;-62
2023/04/07 14:35:14;;;;;;;;;;;;;;;17.75;31.31;97928.91;4954283;29;19918;-63
2023/04/07 14:37:39;;;;;;;;;;;;;;;17.88;31.34;97933.81;4951892;28;19934;-62
2023/04/07 14:40:05;;;;;;;;;;;;;;;17.55;31.54;97935.44;4954333;29;19914;-64
2023/04/07 14:42:30;;;;;;;;;;;;;;;17.54;31.79;97933.75;4953563;29;19922;-62
2023/04/07 14:44:55;;;;;;;;;;;;;;;17.82;31.61;97930.97;4957735;29;19914;-62
2023/04/07 14:47:21;;;;;;;;;;;;;;;18.26;31.13;97924.53;4954119;29;20021;-63
2023/04/07 14:49:46;;;;;;;;;;;;;;;20.29;28.84;97926.50;4952020;28;20017;-63
2023/04/07 14:52:12;;;;;;;;;;;;;;;19.87;28.64;97933.81;4936779;29;19925;-62
2023/04/07 14:54:38;;;;;;;;;;;;;;;19.42;29.07;97929.88;4954109;28;19966;-62
2023/04/07 14:57:03;;;;;;;;;;;;;;;18.58;30.14;97927.44;4952889;28;19957;-63
2023/04/07 14:59:28;;;;;;;;;;;;;;;17.53;31.76;97932.09;4953938;28;19914;-63
2023/04/07 15:01:53;;;;;;;;;;;;;;;17.06;32.56;97937.69;4954214;28;19914;-63
2023/04/07 15:04:19;;;;;;;;;;;;;;;16.99;32.78;97931.34;4952083;29;19918;-63
2023/04/07 15:06:44;;;;;;;;;;;;;;;16.83;33.05;97935.53;4950893;28;19922;-63
2023/04/07 15:09:09;;;;;;;;;;;;;;;16.49;33.73;97935.31;4957218;28;19922;-63
2023/04/07 15:11:35;;;;;;;;;;;;;;;16.23;33.54;97940.47;4957322;28;20340;-63
2023/04/07 15:14:00;;;;;;;;;;;;;;;16.03;34.46;97944.16;4957519;29;20548;-63
2023/04/07 15:16:25;;;;;;;;;;;;;;;15.69;35.27;97951.81;4957666;29;19922;-63
2023/04/07 15:18:51;;;;;;;;;;;;;;;15.53;35.91;97942.63;4951820;28;19919;-62
2023/04/07 15:21:17;;;;;;;;;;;;;;;15.55;36.44;97950.41;4958865;28;19922;-63
2023/04/07 15:23:42;;;;;;;;;;;;;;;15.47;36.07;97947.66;4938448;29;20008;-62
2023/04/07 15:26:07;;;;;;;;;;;;;;;15.30;36.09;97952.69;4957127;29;19978;-62
2023/04/07 15:28:32;;;;;;;;;;;;;;;15.28;36.45;97949.38;4947745;29;19929;-62
2023/04/07 15:30:58;;;;;;;;;;;;;;;15.43;36.91;97947.94;4940116;28;19926;-62
2023/04/07 15:33:23;;;;;;;;;;;;;;;15.73;36.30;97954.03;4938008;29;19919;-62
2023/04/07 15:35:48;;;;;;;;;;;;;;;15.92;35.54;97952.28;4939213;28;19919;-61
2023/04/07 15:38:14;;;;;;;;;;;;;;;15.62;35.84;97960.31;4937978;29;19919;-62
2023/04/07 15:40:39;;;;;;;;;;;;;;;15.29;36.28;97951.03;4944653;29;19918;-62
2023/04/07 15:43:05;;;;;;;;;;;;;;;15.22;36.99;97954.38;4956921;28;19919;-62
2023/04/07 15:45:31;;;;;;;;;;;;;;;15.18;36.69;97952.00;4972049;28;19930;-62
2023/04/07 15:47:56;;;;;;;;;;;;;;;15.07;36.98;97952.16;4951406;28;19930;-62
2023/04/07 15:50:22;;;;;;;;;;;;;;;15.12;36.72;97949.94;4961572;28;19962;-62
2023/04/07 15:52:47;;;;;;;;;;;;;;;15.43;36.31;97947.13;4955871;29;19950;-62
2023/04/07 15:55:12;;;;;;;;;;;;;;;16.18;35.06;97953.31;4951211;28;19923;-62
2023/04/07 15:57:37;;;;;;;;;;;;;;;16.90;33.71;97938.41;4945494;29;19915;-62
2023/04/07 16:00:03;;;;;;;;;;;;;;;17.46;32.59;97952.28;4953329;29;19925;-62
2023/04/07 16:02:28;;;;;;;;;;;;;;;17.85;32.14;97949.22;4957213;28;19918;-63
2023/04/07 16:04:54;;;;;;;;;;;;;;;18.16;31.26;97947.72;4956479;28;19962;-62
2023/04/07 16:07:19;;;;;;;;;;;;;;;18.32;30.32;97940.84;4962496;28;19954;-62
2023/04/07 16:09:44;;;;;;;;;;;;;;;18.48;30.37;97948.88;4956790;28;19989;-62
2023/04/07 16:12:10;;;;;;;;;;;;;;;18.35;29.99;97943.16;4959385;28;19918;-62
2023/04/07 16:14:35;;;;;;;;;;;;;;;18.54;30.27;97936.75;4956673;29;19915;-62
2023/04/07 16:17:00;;;;;;;;;;;;;;;18.74;29.71;97946.13;4954186;29;19982;-62
2023/04/07 16:19:25;;;;;;;;;;;;;;;18.71;29.49;97943.75;4955186;28;19929;-62
2023/04/07 16:21:51;;;;;;;;;;;;;;;18.85;29.57;97947.63;4952854;28;19923;-63
2023/04/07 16:24:16;;;;;;;;;;;;;;;18.73;29.40;97945.28;4969122;28;19919;-63
2023/04/07 16:26:41;;;;;;;;;;;;;;;18.66;30.05;97948.75;4954795;29;19980;-63
2023/04/07 16:29:06;;;;;;;;;;;;;;;18.74;30.13;97954.09;4956176;28;19966;-64
2023/04/07 16:31:31;;;;;;;;;;;;;;;18.65;30.03;97947.91;4956168;29;19918;-63
2023/04/07 16:33:57;;;;;;;;;;;;;;;18.66;30.50;97954.06;4955480;28;19919;-63
2023/04/07 16:36:22;;;;;;;;;;;;;;;18.58;30.59;97951.34;4957327;28;19974;-63
2023/04/07 16:38:49;;;;;;;;;;;;;;;18.41;30.81;97947.81;4955757;29;19915;-62
2023/04/07 16:41:15;;;;;;;;;;;;;;;18.33;31.08;97947.78;4949822;28;19921;-62
2023/04/07 16:43:40;;;;;;;;;;;;;;;18.05;31.33;97949.84;4954434;29;19922;-62
2023/04/07 16:46:05;;;;;;;;;;;;;;;17.87;31.52;97957.88;4954687;28;20295;-63
2023/04/07 16:48:30;;;;;;;;;;;;;;;17.49;31.85;97959.91;4955769;28;20344;-62
2023/04/07 16:50:56;;;;;;;;;;;;;;;16.90;33.04;97964.88;4956574;28;19918;-62
2023/04/07 16:53:21;;;;;;;;;;;;;;;16.50;33.85;97962.59;4953654;28;20380;-63
2023/04/07 16:55:46;;;;;;;;;;;;;;;16.19;34.33;97976.13;4955095;28;20289;-63
2023/04/07 16:58:12;;;;;;;;;;;;;;;15.71;35.30;97977.13;4955774;28;20308;-63
2023/04/07 17:00:37;;;;;;;;;;;;;;;15.46;35.91;97977.72;4954631;29;19925;-63
2023/04/07 17:03:02;;;;;;;;;;;;;;;15.03;36.59;97976.34;4953405;28;20453;-64
2023/04/07 17:05:27;;;;;;;;;;;;;;;14.62;37.46;97989.63;4955840;29;20416;-63
2023/04/07 17:07:52;;;;;;;;;;;;;;;14.41;37.99;97980.94;4956464;28;19919;-63
2023/04/07 17:10:18;;;;;;;;;;;;;;;14.17;38.66;97997.09;4956111;29;19938;-64
2023/04/07 17:12:43;;;;;;;;;;;;;;;13.99;39.25;97991.59;4955224;28;19922;-64
2023/04/07 17:15:08;;;;;;;;;;;;;;;13.88;39.34;97994.34;4955171;28;19915;-64
2023/04/07 17:17:34;;;;;;;;;;;;;;;13.76;39.87;97993.56;4955328;28;19937;-64
2023/04/07 17:19:59;;;;;;;;;;;;;;;13.60;40.34;97996.66;4955617;28;19922;-64
2023/04/07 17:22:24;;;;;;;;;;;;;;;13.45;40.95;97998.78;4955042;28;20396;-64
2023/04/07 17:24:50;;;;;;;;;;;;;;;13.41;40.99;98002.63;4955748;29;20009;-64
2023/04/07 17:27:15;;;;;;;;;;;;;;;13.29;41.89;97999.22;4953443;29;19925;-64
2023/04/07 17:29:41;;;;;;;;;;;;;;;13.20;42.18;98012.28;4955376;29;19940;-64
2023/04/07 17:32:06;;;;;;;;;;;;;;;13.06;42.50;98013.41;4953804;28;20006;-63
2023/04/07 17:34:31;;;;;;;;;;;;;;;12.98;42.90;98013.22;4955058;28;19997;-64
2023/04/07 17:36:57;;;;;;;;;;;;;;;12.86;43.08;98016.84;4953732;28;19918;-64
2023/04/07 17:39:22;;;;;;;;;;;;;;;12.75;43.55;98020.34;4955027;28;19914;-65
2023/04/07 17:41:47;;;;;;;;;;;;;;;12.63;43.35;98022.16;4955292;29;19918;-64
2023/04/07 17:44:12;;;;;;;;;;;;;;;12.50;44.14;98024.91;4954425;28;19919;-65
2023/04/07 17:46:38;;;;;;;;;;;;;;;12.42;44.14;98032.59;4954347;28;19918;-65
2023/04/07 17:49:03;;;;;;;;;;;;;;;12.32;44.17;98034.28;4954781;29;20451;-64
2023/04/07 17:51:28;;;;;;;;;;;;;;;12.22;44.45;98038.56;4955009;29;20414;-65
2023/04/07 17:53:53;;;;;;;;;;;;;;;12.08;44.26;98034.38;4954335;28;20352;-64
2023/04/07 17:56:19;;;;;;;;;;;;;;;11.99;45.12;98040.34;4945938;28;20296;-65
2023/04/07 17:58:45;;;;;;;;;;;;;;;11.91;45.53;98040.09;4957108;28;19961;-64
2023/04/07 18:01:10;;;;;;;;;;;;;;;11.82;45.52;98044.22;4949269;28;19927;-64
2023/04/07 18:03:35;;;;;;;;;;;;;;;11.71;46.67;98045.03;4953125;28;20339;-65
2023/04/07 18:06:00;;;;;;;;;;;;;;;11.60;47.21;98047.66;4954292;29;19998;-65
2023/04/07 18:08:27;;;;;;;;;;;;;;;11.50;47.42;98047.50;4954674;28;19918;-64
2023/04/07 18:10:52;;;;;;;;;;;;;;;11.40;47.67;98046.50;4954692;28;20320;-65
2023/04/07 18:13:17;;;;;;;;;;;;;;;11.26;47.73;98060.66;4952831;29;19918;-64
2023/04/07 18:15:43;;;;;;;;;;;;;;;11.15;48.46;98058.81;4953973;29;19925;-65
2023/04/07 18:18:08;;;;;;;;;;;;;;;11.03;49.52;98061.50;4954476;28;19914;-65
2023/04/07 18:20:33;;;;;;;;;;;;;;;10.91;48.99;98058.81;4953108;28;20073;-64
2023/04/07 18:22:58;;;;;;;;;;;;;;;10.83;49.93;98063.75;4949219;28;20009;-65
2023/04/07 18:25:24;;;;;;;;;;;;;;;10.74;49.67;98061.81;4954414;28;19915;-65
2023/04/07 18:27:49;;;;;;;;;;;;;;;10.63;50.29;98067.84;4947621;28;19918;-65
2023/04/07 18:30:15;;;;;;;;;;;;;;;10.52;50.46;98072.97;4947056;28;20343;-65
2023/04/07 18:32:40;;;;;;;;;;;;;;;10.43;51.49;98077.09;4952020;28;21223;-65
2023/04/07 18:35:05;;;;;;;;;;;;;;;10.34;51.73;98076.91;4954319;29;19930;-65
2023/04/07 18:37:30;;;;;;;;;;;;;;;10.23;51.90;98081.06;4952891;28;19926;-64
2023/04/07 18:39:56;;;;;;;;;;;;;;;10.15;52.39;98075.53;4953971;29;20427;-65
2023/04/07 18:42:21;;;;;;;;;;;;;;;10.07;52.73;98084.84;4954138;28;19915;-65
2023/04/07 18:44:46;;;;;;;;;;;;;;;9.98;53.32;98091.56;4954420;28;20336;-64
2023/04/07 18:47:12;;;;;;;;;;;;;;;9.95;53.86;98097.00;4952796;28;19961;-65
2023/04/07 18:49:37;;;;;;;;;;;;;;;9.90;53.82;98099.91;4953025;28;19946;-64
2023/04/07 18:52:03;;;;;;;;;;;;;;;9.85;53.91;98099.41;4954157;28;20450;-64
2023/04/07 18:54:28;;;;;;;;;;;;;;;9.85;54.03;98111.69;4954164;28;20395;-64
2023/04/07 18:56:53;;;;;;;;;;;;;;;9.77;54.88;98103.47;4953752;28;19921;-64
2023/04/07 18:59:19;;;;;;;;;;;;;;;9.73;54.47;98108.06;4951990;28;19925;-65
2023/04/07 19:01:44;;;;;;;;;;;;;;;9.70;54.96;98111.75;4953887;29;20399;-62
2023/04/07 19:04:10;;;;;;;;;;;;;;;9.62;55.21;98111.41;4953674;28;20357;-64
2023/04/07 19:06:36;;;;;;;;;;;;;;;9.60;55.73;98108.06;4952670;29;19915;-62
2023/04/07 19:09:02;;;;;;;;;;;;;;;9.50;55.49;98120.91;4951574;28;20025;-63
2023/04/07 19:11:27;;;;;;;;;;;;;;;9.35;55.97;98119.28;4952716;28;19926;-64